Wye River — WDE3583 — position and weather

sailwx.info

Track history (hours):
 
Tides and Currents Weather Stations Pressure Air Temp Water Temp Dewpoint Dewpoint Depression Visibility Wind Speed Wind Dir Waves Ship Positions

Wye River

Owner: Vane Line Bunkering, Inc., Baltimore, MD. More information available from US FCC via Universal Licensing System and Coast Guard Vessel Documentation Center.

Last reported at 2016-Dec-08 12:24 UTC. Time now 2016-Dec-11 00:27 UTC.
Position N 31°24' W 081°01'.

Length 30 m; draft 4.3 m.

Type: Tow > 200 m length. MMSI: 367341190.

Date/timePositionNaut miles runAvg speedWind from/ knotsBaromVisibWave heightAir tempDewpointWater temp
2016-Dec-08 12:24N 31°24' W 081°01'2810.0
2016-Dec-08 09:33N 31°50' W 080°49'8 7.5
2016-Dec-08 08:26N 31°58' W 080°46'6 7.2
2016-Dec-08 07:33N 32°02' W 080°52'9 7.3
2016-Dec-08 06:21N 32°05' W 081°01'4 5.4
2016-Dec-08 05:32N 32°06' W 081°07'0 0.0
2016-Dec-08 04:32N 32°06' W 081°07'0 0.3
2016-Dec-08 03:26N 32°06' W 081°07'0 0.0
2016-Dec-08 02:32N 32°06' W 081°07'0 0.0
2016-Dec-08 01:27N 32°06' W 081°07'0 0.0
2016-Dec-08 00:28N 32°06' W 081°07'0 0.0
2016-Dec-07 23:28N 32°06' W 081°07'0 0.0
2016-Dec-07 22:29N 32°06' W 081°07'0 0.0
2016-Dec-07 21:30N 32°06' W 081°07'0 0.0
2016-Dec-07 20:30N 32°06' W 081°07'0 0.4
2016-Dec-07 19:32N 32°06' W 081°06'1 0.5
2016-Dec-07 18:33N 32°05' W 081°06'6 5.9
2016-Dec-07 17:34N 32°05' W 080°59'8 8.2
2016-Dec-07 16:34N 32°02' W 080°50'5 4.9
2016-Dec-07 15:33N 31°59' W 080°46'  
2016-Dec-05 05:08N 34°21' W 076°40'6 8.8
2016-Dec-05 04:28N 34°21' W 076°33'153 7.6
2016-Dec-04 08:14N 36°51' W 075°53'710.0
2016-Dec-04 07:33N 36°56' W 075°59'17 7.2
2016-Dec-04 05:11N 36°58' W 076°20'0 0.6
2016-Dec-04 04:33N 36°58' W 076°21'6 6.1
2016-Dec-04 03:33N 36°52' W 076°19'4 4.0
2016-Dec-04 02:33N 36°48' W 076°18'0 0.0
2016-Dec-04 01:33N 36°48' W 076°18'0 0.0
2016-Dec-04 00:33N 36°48' W 076°18'0 0.0
2016-Dec-03 23:33N 36°48' W 076°18'0 0.0
2016-Dec-03 22:33N 36°48' W 076°18'0 0.0
2016-Dec-03 21:33N 36°48' W 076°18'0 0.2
2016-Dec-03 20:33N 36°48' W 076°18'0 0.2
2016-Dec-03 19:33N 36°48' W 076°18'0 0.0
2016-Dec-03 18:33N 36°48' W 076°18'0 0.0
2016-Dec-03 17:33N 36°48' W 076°18'0 0.0
2016-Dec-03 16:33N 36°48' W 076°18'0 0.0
2016-Dec-03 15:33N 36°48' W 076°18'0 0.0
2016-Dec-03 14:33N 36°48' W 076°18'0 0.0
2016-Dec-03 13:33N 36°48' W 076°18'0 0.0
2016-Dec-03 12:33N 36°48' W 076°18'0 0.0
2016-Dec-03 11:33N 36°48' W 076°18'0 0.2
2016-Dec-03 10:34N 36°48' W 076°18'2 2.2
2016-Dec-03 09:33N 36°50' W 076°18'12 3.0
2016-Dec-03 05:30N 36°58' W 076°06'168 6.9
2016-Dec-02 05:05N 39°22' W 074°16'11 6.9
2016-Dec-02 03:33N 39°32' W 074°11'8 7.8
2016-Dec-02 02:33N 39°39' W 074°06'7 7.1
2016-Dec-02 01:33N 39°44' W 074°00'8 7.7
2016-Dec-02 00:33N 39°52' W 074°02'33 8.0
2016-Dec-01 20:21N 40°25' W 073°54'6 8.0
2016-Dec-01 19:33N 40°31' W 073°58'9 9.1
2016-Dec-01 18:33N 40°39' W 074°03'9 8.5
2016-Dec-01 17:33N 40°47' W 073°60'7 6.8
2016-Dec-01 16:33N 40°53' W 073°56'4 4.1
2016-Dec-01 15:33N 40°57' W 073°55'0 0.1
2016-Dec-01 14:32N 40°57' W 073°55'0 0.1
2016-Dec-01 12:32N 40°57' W 073°55'0 0.0
2016-Dec-01 09:29N 40°57' W 073°55'0 0.0
2016-Dec-01 06:26N 40°57' W 073°55'0 0.1
2016-Dec-01 04:32N 40°57' W 073°55'0 0.0
2016-Dec-01 02:32N 40°57' W 073°55'0 0.0
2016-Dec-01 01:33N 40°57' W 073°55'0 0.2
2016-Dec-01 00:27N 40°57' W 073°55'1 0.1
2016-Nov-30 07:33N 40°56' W 073°55'4 4.2
2016-Nov-30 06:33N 40°52' W 073°57'4 4.1
2016-Nov-30 05:33N 40°48' W 073°59'4 4.4
2016-Nov-30 04:33N 40°44' W 074°01'3 3.0
2016-Nov-30 03:34N 40°45' W 073°58'6 5.6
2016-Nov-30 02:33N 40°48' W 073°51'4 1.1
2016-Nov-29 23:24N 40°49' W 073°47'171 6.6
2016-Nov-28 21:33N 42°13' W 070°28'8 7.8
2016-Nov-28 20:33N 42°21' W 070°27'8 7.8
2016-Nov-28 19:34N 42°29' W 070°27'8 8.1
2016-Nov-28 18:33N 42°37' W 070°27'8 8.4
2016-Nov-28 17:33N 42°45' W 070°26'  
Track history (hours):
 
Tides and Currents Weather Stations Pressure Air Temp Water Temp Dewpoint Dewpoint Depression Visibility Wind Speed Wind Dir Waves Ship Positions

Wye River

Owner: Vane Line Bunkering, Inc., Baltimore, MD. More information available from US FCC via Universal Licensing System and Coast Guard Vessel Documentation Center.

Last reported at 2016-Dec-08 12:24 UTC. Time now 2016-Dec-11 00:27 UTC.
Position N 31°24' W 081°01'.

Length 30 m; draft 4.3 m.

Type: Tow > 200 m length. MMSI: 367341190.

Date/timePositionNaut miles runAvg speedWind from/ knotsBaromVisibWave heightAir tempDewpointWater temp
2016-Dec-08 12:24N 31°24' W 081°01'2810.0
2016-Dec-08 09:33N 31°50' W 080°49'8 7.5
2016-Dec-08 08:26N 31°58' W 080°46'6 7.2
2016-Dec-08 07:33N 32°02' W 080°52'9 7.3
2016-Dec-08 06:21N 32°05' W 081°01'4 5.4
2016-Dec-08 05:32N 32°06' W 081°07'0 0.0
2016-Dec-08 04:32N 32°06' W 081°07'0 0.3
2016-Dec-08 03:26N 32°06' W 081°07'0 0.0
2016-Dec-08 02:32N 32°06' W 081°07'0 0.0
2016-Dec-08 01:27N 32°06' W 081°07'0 0.0
2016-Dec-08 00:28N 32°06' W 081°07'0 0.0
2016-Dec-07 23:28N 32°06' W 081°07'0 0.0
2016-Dec-07 22:29N 32°06' W 081°07'0 0.0
2016-Dec-07 21:30N 32°06' W 081°07'0 0.0
2016-Dec-07 20:30N 32°06' W 081°07'0 0.4
2016-Dec-07 19:32N 32°06' W 081°06'1 0.5
2016-Dec-07 18:33N 32°05' W 081°06'6 5.9
2016-Dec-07 17:34N 32°05' W 080°59'8 8.2
2016-Dec-07 16:34N 32°02' W 080°50'5 4.9
2016-Dec-07 15:33N 31°59' W 080°46'  
2016-Dec-05 05:08N 34°21' W 076°40'6 8.8
2016-Dec-05 04:28N 34°21' W 076°33'153 7.6
2016-Dec-04 08:14N 36°51' W 075°53'710.0
2016-Dec-04 07:33N 36°56' W 075°59'17 7.2
2016-Dec-04 05:11N 36°58' W 076°20'0 0.6
2016-Dec-04 04:33N 36°58' W 076°21'6 6.1
2016-Dec-04 03:33N 36°52' W 076°19'4 4.0
2016-Dec-04 02:33N 36°48' W 076°18'0 0.0
2016-Dec-04 01:33N 36°48' W 076°18'0 0.0
2016-Dec-04 00:33N 36°48' W 076°18'0 0.0
2016-Dec-03 23:33N 36°48' W 076°18'0 0.0
2016-Dec-03 22:33N 36°48' W 076°18'0 0.0
2016-Dec-03 21:33N 36°48' W 076°18'0 0.2
2016-Dec-03 20:33N 36°48' W 076°18'0 0.2
2016-Dec-03 19:33N 36°48' W 076°18'0 0.0
2016-Dec-03 18:33N 36°48' W 076°18'0 0.0
2016-Dec-03 17:33N 36°48' W 076°18'0 0.0
2016-Dec-03 16:33N 36°48' W 076°18'0 0.0
2016-Dec-03 15:33N 36°48' W 076°18'0 0.0
2016-Dec-03 14:33N 36°48' W 076°18'0 0.0
2016-Dec-03 13:33N 36°48' W 076°18'0 0.0
2016-Dec-03 12:33N 36°48' W 076°18'0 0.0
2016-Dec-03 11:33N 36°48' W 076°18'0 0.2
2016-Dec-03 10:34N 36°48' W 076°18'2 2.2
2016-Dec-03 09:33N 36°50' W 076°18'12 3.0
2016-Dec-03 05:30N 36°58' W 076°06'168 6.9
2016-Dec-02 05:05N 39°22' W 074°16'11 6.9
2016-Dec-02 03:33N 39°32' W 074°11'8 7.8
2016-Dec-02 02:33N 39°39' W 074°06'7 7.1
2016-Dec-02 01:33N 39°44' W 074°00'8 7.7
2016-Dec-02 00:33N 39°52' W 074°02'33 8.0
2016-Dec-01 20:21N 40°25' W 073°54'6 8.0
2016-Dec-01 19:33N 40°31' W 073°58'9 9.1
2016-Dec-01 18:33N 40°39' W 074°03'9 8.5
2016-Dec-01 17:33N 40°47' W 073°60'7 6.8
2016-Dec-01 16:33N 40°53' W 073°56'4 4.1
2016-Dec-01 15:33N 40°57' W 073°55'0 0.1
2016-Dec-01 14:32N 40°57' W 073°55'0 0.1
2016-Dec-01 12:32N 40°57' W 073°55'0 0.0
2016-Dec-01 09:29N 40°57' W 073°55'0 0.0
2016-Dec-01 06:26N 40°57' W 073°55'0 0.1
2016-Dec-01 04:32N 40°57' W 073°55'0 0.0
2016-Dec-01 02:32N 40°57' W 073°55'0 0.0
2016-Dec-01 01:33N 40°57' W 073°55'0 0.2
2016-Dec-01 00:27N 40°57' W 073°55'1 0.1
2016-Nov-30 07:33N 40°56' W 073°55'4 4.2
2016-Nov-30 06:33N 40°52' W 073°57'4 4.1
2016-Nov-30 05:33N 40°48' W 073°59'4 4.4
2016-Nov-30 04:33N 40°44' W 074°01'3 3.0
2016-Nov-30 03:34N 40°45' W 073°58'6 5.6
2016-Nov-30 02:33N 40°48' W 073°51'4 1.1
2016-Nov-29 23:24N 40°49' W 073°47'171 6.6
2016-Nov-28 21:33N 42°13' W 070°28'8 7.8
2016-Nov-28 20:33N 42°21' W 070°27'8 7.8
2016-Nov-28 19:34N 42°29' W 070°27'8 8.1
2016-Nov-28 18:33N 42°37' W 070°27'8 8.4
2016-Nov-28 17:33N 42°45' W 070°26'  

Dump ship's entire track history